createdAt,value
2023-02-11T00:02:11.885Z,47.80
2023-02-11T00:04:44.593Z,50.33
2023-02-11T00:07:16.485Z,46.13
2023-02-11T00:09:49.480Z,46.65
2023-02-11T00:12:21.691Z,45.72
2023-02-11T00:14:54.400Z,41.45
2023-02-11T00:17:26.350Z,39.22
2023-02-11T00:19:59.447Z,41.13
2023-02-11T00:22:31.389Z,40.03
2023-02-11T00:25:05.129Z,39.97
2023-02-11T00:27:38.744Z,43.67
2023-02-11T00:30:11.770Z,45.03
2023-02-11T00:32:45.110Z,47.93
2023-02-11T00:35:17.210Z,44.10
2023-02-11T00:37:49.934Z,49.67
2023-02-11T00:40:22.568Z,45.78
2023-02-11T00:42:54.492Z,43.53
2023-02-11T00:45:31.065Z,48.43
2023-02-11T00:48:03.796Z,43.00
2023-02-11T00:50:35.747Z,40.35
2023-02-11T00:53:11.453Z,42.30
2023-02-11T00:55:43.999Z,36.35
2023-02-11T00:58:16.697Z,35.03
2023-02-11T01:00:49.361Z,45.72
2023-02-11T01:03:22.359Z,37.72
2023-02-11T01:05:54.987Z,38.70
2023-02-11T01:08:27.876Z,43.55
2023-02-11T01:11:08.225Z,38.20
2023-02-11T01:13:40.539Z,42.25
2023-02-11T01:16:14.108Z,44.72
2023-02-11T01:18:47.145Z,40.38
2023-02-11T01:21:23.496Z,36.38
2023-02-11T01:23:56.753Z,39.87
2023-02-11T01:26:29.154Z,40.35
2023-02-11T01:29:03.955Z,43.50
2023-02-11T01:31:36.795Z,42.95
2023-02-11T01:34:09.290Z,38.22
2023-02-11T01:36:42.946Z,38.30
2023-02-11T01:39:15.658Z,45.30
2023-02-11T01:42:09.996Z,45.78
2023-02-11T01:44:42.339Z,39.83
2023-02-11T01:47:15.118Z,40.90
2023-02-11T01:49:57.413Z,41.20
2023-02-11T01:52:36.107Z,43.72
2023-02-11T01:55:31.414Z,39.50
2023-02-11T01:58:05.859Z,38.78
2023-02-11T02:00:40.341Z,45.35
2023-02-11T02:03:22.881Z,37.53
2023-02-11T02:06:16.905Z,42.03
2023-02-11T02:09:04.706Z,32.10
2023-02-11T02:11:36.636Z,34.45
2023-02-11T02:14:10.171Z,38.28
2023-02-11T02:16:42.599Z,42.43
2023-02-11T02:19:46.140Z,40.78
2023-02-11T02:23:38.477Z,38.42
2023-02-11T02:26:18.058Z,31.77
2023-02-11T02:33:22.809Z,36.57
2023-02-11T02:35:55.820Z,33.63
2023-02-11T02:39:06.777Z,35.10
2023-02-11T02:41:39.972Z,29.63
2023-02-11T02:44:12.150Z,29.83
2023-02-11T02:46:44.920Z,32.90
2023-02-11T02:49:17.717Z,33.85
2023-02-11T02:52:08.488Z,40.65
2023-02-11T02:55:09.640Z,34.45
2023-02-11T02:58:25.094Z,34.08
2023-02-11T03:01:45.754Z,30.87
2023-02-11T03:04:53.460Z,31.00
2023-02-11T03:07:42.197Z,29.83
2023-02-11T03:10:21.608Z,34.33
2023-02-11T03:12:56.369Z,33.75
2023-02-11T03:15:32.660Z,27.87
2023-02-11T03:18:10.319Z,27.38
2023-02-11T03:20:47.493Z,27.85
2023-02-11T03:23:29.013Z,29.52
2023-02-11T03:26:41.902Z,24.45
2023-02-11T03:29:36.230Z,24.20
2023-02-11T03:32:34.969Z,27.95
2023-02-11T03:35:16.142Z,29.02
2023-02-11T03:38:07.080Z,26.27
2023-02-11T03:40:42.863Z,28.13
2023-02-11T03:43:30.334Z,28.53
2023-02-11T03:46:04.292Z,29.73
2023-02-11T03:48:44.699Z,28.02
2023-02-11T03:51:18.034Z,30.45
2023-02-11T03:53:53.100Z,30.40
2023-02-11T03:56:31.520Z,30.43
2023-02-11T03:59:21.824Z,28.63
2023-02-11T04:04:48.338Z,31.30
2023-02-11T04:07:20.736Z,27.45
2023-02-11T04:09:53.396Z,25.23
2023-02-11T04:12:26.073Z,26.48
2023-02-11T04:14:57.976Z,27.70
2023-02-11T04:17:30.830Z,25.67
2023-02-11T04:20:02.820Z,25.33
2023-02-11T04:22:57.321Z,26.13
2023-02-11T04:25:52.071Z,26.77
2023-02-11T04:28:24.559Z,29.45
2023-02-11T04:30:57.508Z,26.58
2023-02-11T04:33:30.232Z,28.80
2023-02-11T04:36:02.121Z,28.90
2023-02-11T04:38:35.492Z,27.65
2023-02-11T04:41:07.449Z,27.80
2023-02-11T04:43:40.330Z,23.80
2023-02-11T04:46:12.892Z,24.85
2023-02-11T04:48:45.321Z,23.43
2023-02-11T04:51:17.357Z,23.33
2023-02-11T04:53:50.126Z,23.00
2023-02-11T04:56:23.494Z,24.10
2023-02-11T04:58:55.874Z,25.73
2023-02-11T05:01:28.330Z,26.47
2023-02-11T05:04:00.456Z,23.13
2023-02-11T05:06:33.231Z,24.77
2023-02-11T05:09:05.209Z,25.52
2023-02-11T05:11:39.818Z,26.27
2023-02-11T05:14:11.706Z,26.90
2023-02-11T05:16:44.502Z,28.35
2023-02-11T05:19:17.425Z,25.02
2023-02-11T05:22:01.624Z,27.30
2023-02-11T05:24:35.363Z,28.15
2023-02-11T05:27:08.570Z,29.33
2023-02-11T05:29:40.999Z,23.98
2023-02-11T05:32:13.367Z,23.88
2023-02-11T05:34:45.335Z,23.60
2023-02-11T05:37:20.819Z,27.42
2023-02-11T05:39:53.205Z,24.03
2023-02-11T05:42:26.382Z,24.23
2023-02-11T05:44:58.383Z,23.15
2023-02-11T05:47:31.245Z,24.80
2023-02-11T05:50:06.950Z,23.88
2023-02-11T05:52:39.312Z,24.00
2023-02-11T05:55:12.153Z,22.55
2023-02-11T05:57:45.022Z,26.08
2023-02-11T06:00:18.274Z,24.95
2023-02-11T06:03:12.546Z,27.83
2023-02-11T06:08:39.694Z,24.67
2023-02-11T06:14:04.776Z,21.75
2023-02-11T06:16:37.576Z,25.13
2023-02-11T06:19:10.010Z,20.90
2023-02-11T06:21:44.294Z,19.48
2023-02-11T06:24:24.659Z,18.45
2023-02-11T06:27:09.251Z,19.17
2023-02-11T06:29:42.056Z,17.80
2023-02-11T06:32:36.886Z,15.37
2023-02-11T06:35:09.488Z,21.15
2023-02-11T06:37:43.520Z,18.08
2023-02-11T06:40:16.638Z,22.00
2023-02-11T06:42:48.618Z,16.65
2023-02-11T06:45:21.227Z,19.33
2023-02-11T06:47:53.371Z,17.98
2023-02-11T06:50:28.692Z,20.75
2023-02-11T06:53:01.275Z,49.13
2023-02-11T06:55:35.925Z,18.85
2023-02-11T06:58:08.594Z,18.80
2023-02-11T07:00:41.672Z,27.42
2023-02-11T07:03:13.737Z,21.23
2023-02-11T07:05:46.960Z,21.25
2023-02-11T07:08:38.533Z,23.50
2023-02-11T07:11:24.663Z,21.13
2023-02-11T07:14:02.229Z,22.30
2023-02-11T07:16:35.869Z,26.98
2023-02-11T07:19:08.609Z,19.98
2023-02-11T07:21:40.934Z,25.20
2023-02-11T07:24:13.876Z,21.60
2023-02-11T07:26:47.451Z,22.75
2023-02-11T07:29:19.873Z,23.42
2023-02-11T07:31:52.248Z,29.00
2023-02-11T07:34:24.720Z,29.60
2023-02-11T07:36:59.181Z,29.13
2023-02-11T07:39:31.509Z,30.63
2023-02-11T07:42:04.716Z,33.95
2023-02-11T07:47:30.186Z,34.05
2023-02-11T07:50:03.048Z,29.73
2023-02-11T07:52:38.877Z,29.00
2023-02-11T07:55:11.554Z,31.58
2023-02-11T07:57:44.374Z,28.10
2023-02-11T08:00:19.383Z,30.05
2023-02-11T08:02:54.479Z,31.43
2023-02-11T08:05:26.413Z,31.25
2023-02-11T08:07:59.170Z,25.80
2023-02-11T08:10:32.880Z,28.98
2023-02-11T08:13:05.202Z,30.25
2023-02-11T08:15:37.538Z,28.40
2023-02-11T08:18:09.414Z,29.35
2023-02-11T08:20:42.501Z,29.55
2023-02-11T08:23:14.430Z,28.92
2023-02-11T08:25:47.207Z,31.10
2023-02-11T08:28:19.594Z,28.97
2023-02-11T08:30:51.893Z,34.10
2023-02-11T08:33:24.899Z,35.22
2023-02-11T08:35:57.605Z,33.35
2023-02-11T08:38:30.875Z,35.45
2023-02-11T08:41:03.648Z,31.10
2023-02-11T08:43:37.326Z,32.55
2023-02-11T08:46:13.908Z,32.03
2023-02-11T08:48:47.499Z,35.88
2023-02-11T08:51:31.934Z,30.33
2023-02-11T08:54:04.366Z,27.87
2023-02-11T08:56:39.311Z,28.33
2023-02-11T08:59:15.084Z,26.10
2023-02-11T09:01:48.090Z,26.90
2023-02-11T09:04:20.315Z,29.75
2023-02-11T09:06:53.524Z,27.23
2023-02-11T09:09:28.760Z,30.40
2023-02-11T09:12:01.450Z,26.73
2023-02-11T09:14:35.441Z,26.08
2023-02-11T09:17:07.440Z,27.95
2023-02-11T09:22:33.633Z,31.33
2023-02-11T09:25:07.216Z,29.25
2023-02-11T09:27:40.192Z,26.67
2023-02-11T09:30:12.916Z,30.00
2023-02-11T09:32:45.760Z,32.70
2023-02-11T09:35:18.314Z,34.47
2023-02-11T09:37:51.721Z,32.00
2023-02-11T09:40:24.240Z,39.17
2023-02-11T09:43:44.313Z,40.97
2023-02-11T09:46:18.167Z,36.40
2023-02-11T09:48:57.914Z,35.50
2023-02-11T09:51:36.094Z,40.38
2023-02-11T09:54:20.160Z,32.63
2023-02-11T09:56:52.135Z,35.50
2023-02-11T09:59:24.500Z,33.33
2023-02-11T10:02:05.157Z,31.05
2023-02-11T10:05:12.779Z,32.72
2023-02-11T10:08:22.757Z,32.03
2023-02-11T10:11:05.885Z,38.58
2023-02-11T10:13:53.279Z,36.57
2023-02-11T10:17:14.689Z,33.88
2023-02-11T10:19:57.734Z,36.47
2023-02-11T10:22:50.398Z,30.95
2023-02-11T10:25:54.488Z,31.85
2023-02-11T10:28:33.275Z,34.73
2023-02-11T10:31:15.893Z,41.15
2023-02-11T10:34:13.079Z,34.60
2023-02-11T10:36:45.777Z,31.90
2023-02-11T10:39:24.897Z,34.30
2023-02-11T10:42:06.721Z,36.67
2023-02-11T10:44:46.663Z,32.85
2023-02-11T10:47:24.976Z,34.65
2023-02-11T10:50:03.809Z,34.40
2023-02-11T10:52:36.186Z,37.85
2023-02-11T10:55:22.591Z,34.87
2023-02-11T10:58:01.509Z,40.42
2023-02-11T11:00:37.339Z,42.42
2023-02-11T11:03:23.392Z,35.20
2023-02-11T11:06:05.644Z,42.53
2023-02-11T11:08:44.274Z,43.07
2023-02-11T11:11:26.588Z,40.88
2023-02-11T11:14:03.747Z,41.58
2023-02-11T11:16:37.723Z,38.90
2023-02-11T11:19:09.969Z,44.25
2023-02-11T11:21:56.432Z,46.80
2023-02-11T11:24:45.005Z,45.50
2023-02-11T11:27:25.144Z,45.75
2023-02-11T11:29:57.806Z,43.15
2023-02-11T11:32:33.666Z,43.38
2023-02-11T11:35:25.470Z,45.53
2023-02-11T11:38:02.328Z,40.65
2023-02-11T11:40:35.994Z,39.35
2023-02-11T11:43:14.562Z,41.38
2023-02-11T11:45:56.364Z,40.50
2023-02-11T11:48:47.526Z,41.77
2023-02-11T11:51:19.902Z,48.60
2023-02-11T11:54:18.395Z,46.42
2023-02-11T11:57:18.965Z,40.35
2023-02-11T11:59:51.300Z,39.50
2023-02-11T12:03:11.363Z,39.23
2023-02-11T12:06:09.648Z,41.35
2023-02-11T12:09:25.875Z,45.85
2023-02-11T12:12:27.540Z,41.13
2023-02-11T12:15:20.503Z,44.53
2023-02-11T12:18:14.606Z,40.50
2023-02-11T12:21:13.288Z,41.22
2023-02-11T12:24:17.421Z,46.70
2023-02-11T12:27:36.651Z,45.63
2023-02-11T12:30:33.865Z,40.22
2023-02-11T12:33:36.160Z,46.63
2023-02-11T12:36:21.707Z,44.88
2023-02-11T12:39:37.424Z,46.13
2023-02-11T12:43:02.533Z,50.05
2023-02-11T12:45:59.164Z,42.35
2023-02-11T12:49:02.182Z,43.67
2023-02-11T12:52:18.874Z,47.72
2023-02-11T12:55:23.146Z,43.13
2023-02-11T12:57:59.081Z,45.70
2023-02-11T13:00:48.785Z,45.17
2023-02-11T13:03:47.099Z,48.77
2023-02-11T13:06:28.309Z,41.78
2023-02-11T13:09:05.057Z,41.58
2023-02-11T13:11:45.022Z,41.47
2023-02-11T13:14:32.718Z,40.58
2023-02-11T13:17:18.714Z,38.33
2023-02-11T13:20:01.608Z,36.78
2023-02-11T13:22:44.646Z,41.95
2023-02-11T13:25:23.436Z,40.92
2023-02-11T13:28:45.908Z,40.80
2023-02-11T13:31:20.319Z,44.50
2023-02-11T13:33:53.287Z,40.95
2023-02-11T13:36:28.696Z,43.30
2023-02-11T13:39:06.906Z,40.55
2023-02-11T13:41:41.324Z,41.50
2023-02-11T13:44:22.576Z,41.73
2023-02-11T13:47:03.269Z,43.10
2023-02-11T13:49:51.175Z,40.35
2023-02-11T13:52:31.216Z,39.78
2023-02-11T13:55:24.632Z,38.85
2023-02-11T13:58:08.802Z,43.23
2023-02-11T14:00:52.292Z,36.80
2023-02-11T14:03:52.606Z,36.05
2023-02-11T14:06:48.147Z,33.97
2023-02-11T14:09:23.436Z,38.40
2023-02-11T14:12:31.892Z,39.37
2023-02-11T14:15:07.943Z,34.38
2023-02-11T14:17:40.424Z,38.65
2023-02-11T14:20:39.786Z,36.38
2023-02-11T14:23:27.563Z,38.75
2023-02-11T14:26:21.505Z,34.73
2023-02-11T14:29:40.992Z,38.40
2023-02-11T14:32:53.119Z,34.47
2023-02-11T14:36:00.993Z,30.60
2023-02-11T14:39:09.989Z,24.55
2023-02-11T14:41:45.348Z,25.63
2023-02-11T14:44:28.311Z,23.50
2023-02-11T14:47:01.017Z,25.90
2023-02-11T14:49:39.854Z,25.30
2023-02-11T14:52:31.614Z,26.83
2023-02-11T14:55:18.847Z,27.37
2023-02-11T14:58:19.092Z,28.40
2023-02-11T15:01:01.427Z,26.13
2023-02-11T15:03:40.370Z,28.40
2023-02-11T15:06:25.482Z,27.45
2023-02-11T15:09:41.729Z,28.30
2023-02-11T15:12:26.821Z,29.05
2023-02-11T15:15:01.041Z,29.92
2023-02-11T15:17:33.106Z,24.45
2023-02-11T15:20:06.881Z,26.85
2023-02-11T15:22:39.356Z,25.70
2023-02-11T15:25:17.583Z,26.23
2023-02-11T15:27:53.934Z,25.10
2023-02-11T15:30:31.377Z,28.08
2023-02-11T15:33:06.781Z,28.40
2023-02-11T15:35:41.391Z,29.50
2023-02-11T15:38:14.215Z,26.10
2023-02-11T15:41:38.739Z,30.13
2023-02-11T15:44:32.329Z,27.95
2023-02-11T15:47:11.850Z,27.58
2023-02-11T15:49:45.837Z,30.47
2023-02-11T15:52:26.084Z,24.98
2023-02-11T15:55:01.668Z,27.60
2023-02-11T15:57:34.748Z,23.38
2023-02-11T16:00:08.188Z,30.13
2023-02-11T16:02:46.704Z,26.20
2023-02-11T16:05:37.137Z,26.85
2023-02-11T16:08:42.084Z,25.95
2023-02-11T16:11:35.122Z,32.20
2023-02-11T16:14:37.504Z,26.48
2023-02-11T16:17:12.537Z,25.37
2023-02-11T16:19:48.159Z,24.95
2023-02-11T16:22:26.287Z,26.33
2023-02-11T16:25:00.274Z,29.40
2023-02-11T16:27:42.088Z,29.50
2023-02-11T16:30:34.590Z,30.27
2023-02-11T16:33:06.585Z,28.27
2023-02-11T16:35:39.017Z,30.30
2023-02-11T16:38:10.910Z,30.90
2023-02-11T16:40:44.875Z,27.48
2023-02-11T16:43:20.663Z,32.87
2023-02-11T16:45:53.285Z,34.25
2023-02-11T16:48:25.551Z,25.45
2023-02-11T16:50:58.193Z,28.65
2023-02-11T16:53:30.662Z,26.08
2023-02-11T16:56:03.038Z,28.73
2023-02-11T16:58:35.044Z,32.33
2023-02-11T17:01:07.905Z,34.92
2023-02-11T17:03:40.755Z,26.85
2023-02-11T17:06:14.283Z,31.58
2023-02-11T17:08:46.288Z,29.00
2023-02-11T17:11:20.143Z,25.65
2023-02-11T17:13:52.468Z,35.20
2023-02-11T17:16:25.464Z,28.17
2023-02-11T17:18:57.413Z,25.83
2023-02-11T17:21:31.869Z,31.43
2023-02-11T17:24:04.385Z,33.15
2023-02-11T17:26:38.223Z,31.00
2023-02-11T17:29:16.671Z,30.27
2023-02-11T17:31:49.651Z,31.92
2023-02-11T17:34:22.921Z,31.57
2023-02-11T17:36:55.428Z,34.55
2023-02-11T17:39:27.935Z,25.85
2023-02-11T17:42:00.661Z,31.60
2023-02-11T17:44:34.006Z,37.50
2023-02-11T17:47:06.327Z,35.03
2023-02-11T17:49:39.029Z,38.13
2023-02-11T17:52:11.797Z,37.55
2023-02-11T17:54:44.213Z,33.80
2023-02-11T17:57:16.595Z,35.45
2023-02-11T17:59:48.573Z,33.27
2023-02-11T18:02:21.070Z,36.70
2023-02-11T18:04:55.433Z,35.38
2023-02-11T18:07:27.826Z,33.58
2023-02-11T18:09:59.776Z,33.90
2023-02-11T18:12:32.124Z,34.80
2023-02-11T18:15:04.507Z,42.28
2023-02-11T18:17:36.887Z,32.45
2023-02-11T18:20:09.896Z,34.75
2023-02-11T18:22:44.556Z,36.33
2023-02-11T18:25:17.414Z,34.77
2023-02-11T18:27:49.745Z,32.17
2023-02-11T18:30:22.367Z,33.40
2023-02-11T18:32:57.875Z,32.05
2023-02-11T18:35:29.853Z,30.20
2023-02-11T18:38:02.300Z,31.03
2023-02-11T18:40:34.666Z,28.98
2023-02-11T18:43:07.320Z,28.25
2023-02-11T18:45:44.270Z,30.67
2023-02-11T18:48:17.700Z,33.42
2023-02-11T18:50:50.114Z,33.50
2023-02-11T18:53:23.720Z,32.33
2023-02-11T18:55:56.134Z,33.72
2023-02-11T18:58:28.087Z,32.13
2023-02-11T19:01:00.575Z,36.67
2023-02-11T19:03:32.492Z,30.80
2023-02-11T19:06:05.361Z,35.00
2023-02-11T19:08:37.289Z,33.33
2023-02-11T19:11:10.146Z,33.00
2023-02-11T19:13:42.133Z,29.15
2023-02-11T19:16:17.007Z,30.40
2023-02-11T19:18:49.068Z,32.33
2023-02-11T19:21:21.578Z,31.10
2023-02-11T19:23:53.514Z,31.58
2023-02-11T19:26:26.825Z,33.10
2023-02-11T19:28:59.131Z,33.70
2023-02-11T19:31:33.945Z,33.00
2023-02-11T19:34:07.562Z,30.02
2023-02-11T19:36:40.728Z,28.70
2023-02-11T19:39:13.117Z,32.90
2023-02-11T19:41:45.708Z,32.97
2023-02-11T19:44:18.388Z,39.92
2023-02-11T19:46:53.008Z,32.75
2023-02-11T19:49:26.326Z,33.10
2023-02-11T19:51:59.068Z,42.33
2023-02-11T19:54:31.123Z,33.53
2023-02-11T19:57:03.545Z,38.08
2023-02-11T19:59:35.420Z,37.92
2023-02-11T20:02:08.341Z,30.83
2023-02-11T20:04:40.291Z,36.03
2023-02-11T20:07:12.804Z,30.57
2023-02-11T20:09:44.811Z,33.80
2023-02-11T20:12:17.949Z,33.80
2023-02-11T20:14:49.894Z,33.65
2023-02-11T20:17:22.410Z,36.35
2023-02-11T20:19:54.325Z,34.27
2023-02-11T20:22:26.768Z,34.40
2023-02-11T20:24:58.691Z,34.22
2023-02-11T20:27:32.393Z,29.70
2023-02-11T20:30:05.381Z,33.55
2023-02-11T20:32:38.856Z,31.20
2023-02-11T20:35:10.874Z,33.63
2023-02-11T20:37:44.296Z,30.45
2023-02-11T20:40:17.338Z,32.45
2023-02-11T20:42:49.958Z,31.67
2023-02-11T20:45:22.956Z,29.63
2023-02-11T20:47:55.420Z,30.45
2023-02-11T20:50:27.358Z,30.17
2023-02-11T20:52:59.819Z,29.70
2023-02-11T20:55:31.928Z,30.67
2023-02-11T20:58:05.786Z,33.13
2023-02-11T21:00:37.827Z,33.90
2023-02-11T21:03:10.640Z,29.95
2023-02-11T21:05:42.606Z,31.38
2023-02-11T21:08:14.989Z,30.63
2023-02-11T21:10:48.509Z,28.57
2023-02-11T21:13:20.975Z,29.02
2023-02-11T21:15:57.375Z,29.27
2023-02-11T21:18:30.166Z,30.90
2023-02-11T21:21:02.272Z,30.65
2023-02-11T21:23:35.977Z,30.00
2023-02-11T21:26:08.822Z,29.63
2023-02-11T21:28:41.503Z,32.00
2023-02-11T21:31:27.157Z,27.00
2023-02-11T21:33:59.856Z,31.52
2023-02-11T21:36:32.005Z,30.47
2023-02-11T21:39:05.872Z,31.13
2023-02-11T21:41:37.873Z,28.67
2023-02-11T21:44:10.098Z,26.52
2023-02-11T21:46:42.100Z,26.80
2023-02-11T21:49:14.625Z,30.80
2023-02-11T21:51:46.966Z,29.42
2023-02-11T21:54:20.343Z,30.45
2023-02-11T21:56:52.447Z,34.95
2023-02-11T21:59:24.823Z,31.05
2023-02-11T22:01:56.851Z,33.33
2023-02-11T22:04:29.290Z,33.38
2023-02-11T22:07:02.887Z,32.25
2023-02-11T22:09:35.252Z,33.72
2023-02-11T22:12:11.257Z,33.15
2023-02-11T22:14:43.892Z,29.33
2023-02-11T22:17:16.300Z,31.08
2023-02-11T22:19:49.058Z,32.72
2023-02-11T22:22:21.248Z,30.17
2023-02-11T22:24:54.336Z,29.05
2023-02-11T22:27:26.302Z,26.37
2023-02-11T22:29:58.728Z,33.08
2023-02-11T22:32:30.710Z,36.28
2023-02-11T22:35:03.187Z,30.00
2023-02-11T22:37:35.131Z,32.28
2023-02-11T22:40:08.483Z,30.37
2023-02-11T22:42:40.447Z,29.05
2023-02-11T22:45:13.971Z,30.95
2023-02-11T22:47:45.902Z,29.70
2023-02-11T22:50:19.836Z,29.17
2023-02-11T22:52:51.729Z,33.80
2023-02-11T22:55:24.085Z,33.20
2023-02-11T22:57:56.054Z,32.95
2023-02-11T23:00:32.204Z,28.45
2023-02-11T23:03:05.650Z,27.90
2023-02-11T23:05:42.705Z,35.10
2023-02-11T23:08:14.695Z,25.98
2023-02-11T23:10:47.266Z,24.50
2023-02-11T23:13:19.431Z,28.67
2023-02-11T23:15:51.801Z,29.17
2023-02-11T23:18:23.695Z,24.33
2023-02-11T23:20:56.453Z,30.15
2023-02-11T23:23:28.472Z,26.60
2023-02-11T23:26:01.433Z,28.23
2023-02-11T23:28:33.416Z,30.77
2023-02-11T23:31:38.114Z,31.97
2023-02-11T23:34:10.727Z,27.65
2023-02-11T23:36:44.480Z,25.80
2023-02-11T23:39:17.129Z,23.40
2023-02-11T23:41:52.720Z,26.65
2023-02-11T23:44:27.993Z,31.63
2023-02-11T23:47:00.358Z,26.27
2023-02-11T23:49:32.320Z,27.35
2023-02-11T23:52:04.708Z,26.58
2023-02-11T23:54:36.673Z,23.90
2023-02-11T23:57:09.058Z,23.77
2023-02-11T23:59:43.172Z,22.23
